VRTM - Saison 11

Position Fahrer Laps Zeit Diff Fahrzeug Status Gesamt Bonuspunkte Strafpunkte
1 René Beitz 20 31:12.963 - Audi RS 5 DTM 2015 Beendet 40 0 0
2 Kai Ostwald 20 31:13.292 0:00.329 BMW M4 DTM 2015 Beendet 35 0 0
3 Jörg Spindler 20 31:30.447 0:17.484 Mercedes-AMG C63 DTM Beendet 31 0 0
4 Andre Rajkovic 20 31:39.434 0:26.471 BMW M4 DTM 2015 Beendet 28 0 0
5 Sirko Sundermann 20 31:43.806 0:30.843 Audi RS 5 DTM 2015 Beendet 26 0 0
6 Markus Studer 20 31:44.069 0:31.106 Audi RS 5 DTM 2015 Beendet 24 0 0
7 Michael Endres 20 31:48.248 0:35.285 BMW M4 DTM 2015 Beendet 22 0 0
8 Franz Mayr 20 31:53.064 0:40.101 BMW M4 DTM 2015 Beendet 20 0 0
9 Dietmar Scholz 20 31:57.940 0:44.977 Mercedes-AMG C63 DTM Beendet 18 0 0
10 Manuel Schmidt 20 32:03.703 0:50.740 BMW M4 DTM 2015 Beendet 16 0 0
11 Marco Grontzki 20 32:04.322 0:51.359 Mercedes-AMG C63 DTM Beendet 14 0 0
12 Dennis Hillmann 20 32:04.784 0:51.821 Mercedes-AMG C63 DTM Beendet 13 0 0
13 Peter Glowka 20 32:06.718 0:53.755 Audi RS 5 DTM 2015 Beendet 12 0 0
14 Axel Dorner 20 32:07.329 0:54.366 Audi RS 5 DTM 2015 Beendet 11 0 0
15 Roman Holzi 20 32:08.120 0:55.157 Audi RS 5 DTM 2015 Beendet 10 0 0
16 Nils Herbstrieth 20 32:09.162 0:56.199 BMW M4 DTM 2015 Beendet 9 0 0
17 Oliver Augst 20 32:09.729 0:56.766 BMW M4 DTM 2015 Beendet 8 0 0
18 Max Ohliger 20 32:14.003 1:01.040 BMW M4 DTM 2015 Beendet 7 0 0
19 Gil Ritter 20 32:14.299 1:01.336 Audi RS 5 DTM 2015 Beendet 6 0 0
20 Tom Ritter 20 32:31.056 1:18.093 Audi RS 5 DTM 2015 Beendet 5 0 0
21 Thorben Kexel 20 32:42.644 1:29.681 Mercedes-AMG C63 DTM Beendet 4 0 0
22 Stefan Findeklee 20 32:44.603 1:31.640 Mercedes-AMG C63 DTM Beendet 3 0 0

Rennverlauf

Die schnellsten 5 pro Runde

Runde 1

Pos Rennpos Fahrer Zeit Diff
1 1 Andre Rajkovic 1:38.951 -
2 2 René Beitz 1:39.469 0:00.518
3 3 Kai Ostwald 1:40.025 0:01.074
4 4 Jörg Spindler 1:41.716 0:02.765
5 5 Michael Endres 1:42.355 0:03.404

Runde 2

Pos Rennpos Fahrer Zeit Diff
1 3 Kai Ostwald 1:33.639 -
2 2 René Beitz 1:33.695 0:00.056
3 1 Andre Rajkovic 1:33.716 0:00.077
4 4 Michael Endres 1:35.124 0:01.485
5 6 Nils Herbstrieth 1:35.162 0:01.523

Runde 3

Pos Rennpos Fahrer Zeit Diff
1 1 Andre Rajkovic 1:33.226 -
2 2 René Beitz 1:33.438 0:00.212
3 6 Markus Studer 1:33.691 0:00.465
4 3 Kai Ostwald 1:33.846 0:00.620
5 5 Jörg Spindler 1:34.064 0:00.838

Runde 4

Pos Rennpos Fahrer Zeit Diff
1 1 René Beitz 1:33.484 -
2 3 Michael Endres 1:33.980 0:00.496
3 20 Roman Holzi 1:34.022 0:00.538
4 2 Kai Ostwald 1:34.593 0:01.109
5 7 Sirko Sundermann 1:34.704 0:01.220

Runde 5

Pos Rennpos Fahrer Zeit Diff
1 4 Markus Studer 1:32.981 -
2 2 Kai Ostwald 1:33.159 0:00.178
3 6 Nils Herbstrieth 1:33.330 0:00.349
4 1 René Beitz 1:33.759 0:00.778
5 3 Michael Endres 1:33.898 0:00.917

Runde 6

Pos Rennpos Fahrer Zeit Diff
1 1 René Beitz 1:33.044 -
2 2 Kai Ostwald 1:33.464 0:00.420
3 9 Andre Rajkovic 1:34.072 0:01.028
4 4 Jörg Spindler 1:34.094 0:01.050
5 20 Roman Holzi 1:34.414 0:01.370

Runde 7

Pos Rennpos Fahrer Zeit Diff
1 2 Kai Ostwald 1:33.003 -
2 1 René Beitz 1:33.279 0:00.276
3 21 Thorben Kexel 1:33.946 0:00.943
4 3 Jörg Spindler 1:34.034 0:01.031
5 17 Marco Grontzki 1:34.155 0:01.152

Runde 8

Pos Rennpos Fahrer Zeit Diff
1 1 René Beitz 1:32.733 -
2 2 Kai Ostwald 1:33.218 0:00.485
3 3 Jörg Spindler 1:33.463 0:00.730
4 9 Andre Rajkovic 1:33.881 0:01.148
5 4 Michael Endres 1:33.925 0:01.192

Runde 9

Pos Rennpos Fahrer Zeit Diff
1 2 Kai Ostwald 1:32.779 -
2 6 Markus Studer 1:33.343 0:00.564
3 1 René Beitz 1:33.370 0:00.591
4 3 Jörg Spindler 1:33.494 0:00.715
5 4 Michael Endres 1:33.650 0:00.871

Runde 10

Pos Rennpos Fahrer Zeit Diff
1 5 Markus Studer 1:32.301 -
2 2 Kai Ostwald 1:32.863 0:00.562
3 4 Michael Endres 1:33.589 0:01.288
4 1 René Beitz 1:33.601 0:01.300
5 8 Andre Rajkovic 1:33.670 0:01.369

Runde 11

Pos Rennpos Fahrer Zeit Diff
1 5 Markus Studer 1:32.745 -
2 2 Kai Ostwald 1:33.023 0:00.278
3 1 René Beitz 1:33.219 0:00.474
4 7 Andre Rajkovic 1:33.540 0:00.795
5 3 Jörg Spindler 1:33.691 0:00.946

Runde 12

Pos Rennpos Fahrer Zeit Diff
1 3 Jörg Spindler 1:33.195 -
2 5 Markus Studer 1:33.293 0:00.098
3 1 René Beitz 1:33.379 0:00.184
4 2 Kai Ostwald 1:33.514 0:00.319
5 7 Andre Rajkovic 1:33.553 0:00.358

Runde 13

Pos Rennpos Fahrer Zeit Diff
1 1 René Beitz 1:32.843 -
2 2 Kai Ostwald 1:33.013 0:00.170
3 7 Andre Rajkovic 1:33.498 0:00.655
4 4 Michael Endres 1:33.952 0:01.109
5 5 Markus Studer 1:34.145 0:01.302

Runde 14

Pos Rennpos Fahrer Zeit Diff
1 2 Kai Ostwald 1:32.763 -
2 1 René Beitz 1:33.117 0:00.354
3 17 Roman Holzi 1:33.305 0:00.542
4 3 Jörg Spindler 1:33.601 0:00.838
5 7 Andre Rajkovic 1:33.945 0:01.182

Runde 15

Pos Rennpos Fahrer Zeit Diff
1 5 Markus Studer 1:32.864 -
2 7 Andre Rajkovic 1:33.249 0:00.385
3 2 Kai Ostwald 1:33.426 0:00.562
4 3 Jörg Spindler 1:33.576 0:00.712
5 1 René Beitz 1:33.746 0:00.882

Runde 16

Pos Rennpos Fahrer Zeit Diff
1 3 Jörg Spindler 1:33.558 -
2 6 Andre Rajkovic 1:33.676 0:00.118
3 17 Roman Holzi 1:33.737 0:00.179
4 1 René Beitz 1:33.829 0:00.271
5 2 Kai Ostwald 1:34.089 0:00.531

Runde 17

Pos Rennpos Fahrer Zeit Diff
1 1 René Beitz 1:33.135 -
2 2 Kai Ostwald 1:33.185 0:00.050
3 22 Thorben Kexel 1:33.866 0:00.731
4 3 Jörg Spindler 1:34.017 0:00.882
5 4 Andre Rajkovic 1:34.202 0:01.067

Runde 18

Pos Rennpos Fahrer Zeit Diff
1 2 Kai Ostwald 1:33.120 -
2 1 René Beitz 1:33.215 0:00.095
3 6 Markus Studer 1:33.501 0:00.381
4 22 Thorben Kexel 1:33.746 0:00.626
5 4 Andre Rajkovic 1:33.875 0:00.755

Runde 19

Pos Rennpos Fahrer Zeit Diff
1 6 Markus Studer 1:32.870 -
2 1 René Beitz 1:33.225 0:00.355
3 2 Kai Ostwald 1:33.287 0:00.417
4 4 Andre Rajkovic 1:33.592 0:00.722
5 17 Roman Holzi 1:34.018 0:01.148

Runde 20

Pos Rennpos Fahrer Zeit Diff
1 6 Markus Studer 1:32.847 -
2 2 Kai Ostwald 1:33.271 0:00.424
3 1 René Beitz 1:33.372 0:00.525
4 4 Andre Rajkovic 1:33.949 0:01.102
5 7 Michael Endres 1:34.207 0:01.360

SERVER

0/24
VRL Gentlemen Drivers Cup (GDC) Trainingsserver
TrainingDaytona International Speedway - Road Course
0/103
virtualracing.org #1 GTMG1
TrainingSpa-Francorchamps
0/103
virtualracing.org #2 FNS
TrainingStockcar, Martinsville Speedway
0/103
virtualracing.org #3 FS
TrainingOschersleben Motorsport Park
0/103
virtualracing.org #4 LSM
TrainingLe Mans 24h
1/45
virtualracing.org #5 F1S
TrainingFormelDLM, 07. Spanien - Barcelona GP
0/45
virtualracing.org #6 TWS
TrainingVirtual Racing, VRTWS, 06. Suedafrika-Kyalami
0/103
virtualracing.org P5 ES
TrainingSebring International Raceway
0/32
virtualracing.org#4 GTC Training Standard
TrainingSachsenring - Grand Prix
0/30
virtualracing.org#5 GTC Training A
TrainingSachsenring - Grand Prix
0/33
virtualracing.org#6 GTC Training B
TrainingSachsenring - Grand Prix
0/33
virtualracing.org#7 GTC Training C
TrainingSachsenring - Grand Prix
0/32
virtualracing.org#11 FAC VIP Training
TrainingAutódromo Internacional do Algarve - GP
1/60
virtualracing.org#12 VRLN VR1 VR4H Training
TrainingNordschleife - VLN
0/70
virtualracing.org#13 VRLN VR3T Training
TrainingNordschleife - VLN
0/58
virtualracing.org#14 VRLN VR2GT VR5C Training
TrainingNordschleife - VLN
0/45
virtualracing.org#16 VRLNIV Lauf 3 Qualifikation Grid 2
TrainingNordschleife - VLN Qualifikation
0/60
virtualracing.org#17 VRLNIV Lauf 3 Qualifikation Grid 1
TrainingNordschleife - VLN Qualifikation
0/30
virtualracing.org#23 VRCO Training 1
TrainingAutódromo José Carlos Pace - Grand Prix
0/16
virtualracing.org#28 VR240 Test und Einstellfahrt
TrainingAspertsham - Hargassen
0/24
virtualracing.org#30 ALT Training
TrainingKyalami - Grand Prix Circuit 1961-87